createdAt,value
2022-09-21T00:01:20.826Z,7.95
2022-09-21T00:04:22.815Z,7.91
2022-09-21T00:07:24.725Z,7.87
2022-09-21T00:10:27.349Z,7.85
2022-09-21T00:13:30.053Z,7.82
2022-09-21T00:16:32.338Z,7.78
2022-09-21T00:19:35.058Z,7.75
2022-09-21T00:22:38.274Z,7.72
2022-09-21T00:25:40.176Z,7.69
2022-09-21T00:28:42.286Z,7.67
2022-09-21T00:31:44.186Z,7.65
2022-09-21T00:34:45.943Z,7.64
2022-09-21T00:37:47.837Z,7.63
2022-09-21T00:40:49.621Z,7.64
2022-09-21T00:44:16.434Z,7.66
2022-09-21T00:47:32.389Z,7.67
2022-09-21T00:50:35.371Z,7.68
2022-09-21T00:53:38.338Z,7.71
2022-09-21T00:56:40.289Z,7.75
2022-09-21T00:59:43.931Z,7.78
2022-09-21T01:02:46.155Z,7.80
2022-09-21T01:05:48.128Z,7.83
2022-09-21T01:08:52.914Z,7.84
2022-09-21T01:12:24.875Z,7.85
2022-09-21T01:15:29.745Z,7.85
2022-09-21T01:18:55.653Z,7.85
2022-09-21T01:22:11.236Z,7.84
2022-09-21T01:25:38.100Z,7.81
2022-09-21T01:29:07.239Z,7.78
2022-09-21T01:32:24.490Z,7.77
2022-09-21T01:35:44.338Z,7.75
2022-09-21T01:38:52.755Z,7.72
2022-09-21T01:41:56.395Z,7.69
2022-09-21T01:45:00.056Z,7.65
2022-09-21T01:48:02.220Z,7.63
2022-09-21T01:51:07.922Z,7.61
2022-09-21T01:54:17.050Z,7.60
2022-09-21T01:57:37.838Z,7.61
2022-09-21T02:00:40.432Z,7.62
2022-09-21T02:03:47.926Z,7.65
2022-09-21T02:06:50.534Z,7.67
2022-09-21T02:09:52.369Z,7.69
2022-09-21T02:12:58.672Z,7.72
2022-09-21T02:16:00.503Z,7.74
2022-09-21T02:19:18.082Z,7.77
2022-09-21T02:22:33.562Z,7.80
2022-09-21T02:25:50.283Z,7.82
2022-09-21T02:29:01.899Z,7.85
2022-09-21T02:32:08.447Z,7.87
2022-09-21T02:35:36.393Z,7.89
2022-09-21T02:39:06.198Z,7.91
2022-09-21T02:42:17.491Z,7.93
2022-09-21T02:45:23.166Z,7.96
2022-09-21T02:48:30.798Z,8.00
2022-09-21T02:51:36.820Z,8.03
2022-09-21T02:54:40.370Z,8.05
2022-09-21T02:57:42.955Z,8.06
2022-09-21T03:00:44.842Z,8.09
2022-09-21T03:03:47.540Z,8.10
2022-09-21T03:06:49.578Z,8.11
2022-09-21T03:09:51.333Z,8.10
2022-09-21T03:12:59.435Z,8.11
2022-09-21T03:16:06.299Z,8.11
2022-09-21T03:19:08.208Z,8.10
2022-09-21T03:22:10.022Z,8.10
2022-09-21T03:25:13.267Z,8.09
2022-09-21T03:28:16.294Z,8.09
2022-09-21T03:31:18.126Z,8.09
2022-09-21T03:34:21.211Z,8.09
2022-09-21T03:37:23.033Z,8.09
2022-09-21T03:40:26.712Z,8.10
2022-09-21T03:43:28.519Z,8.10
2022-09-21T03:46:30.445Z,8.10
2022-09-21T03:49:33.018Z,8.10
2022-09-21T03:52:36.296Z,8.10
2022-09-21T03:55:38.603Z,8.10
2022-09-21T03:58:41.356Z,8.11
2022-09-21T04:01:43.639Z,8.12
2022-09-21T04:04:45.417Z,8.12
2022-09-21T04:07:47.806Z,8.12
2022-09-21T04:10:49.651Z,8.14
2022-09-21T04:13:57.156Z,8.15
2022-09-21T04:16:59.456Z,8.16
2022-09-21T04:20:01.437Z,8.16
2022-09-21T04:23:03.213Z,8.15
2022-09-21T04:26:05.198Z,8.15
2022-09-21T04:29:07.354Z,8.13
2022-09-21T04:32:11.272Z,8.09
2022-09-21T04:35:13.027Z,8.01
2022-09-21T04:38:14.890Z,7.93
2022-09-21T04:41:17.195Z,7.88
2022-09-21T04:44:19.829Z,7.85
2022-09-21T04:47:23.858Z,7.85
2022-09-21T04:50:25.782Z,7.87
2022-09-21T04:53:27.689Z,7.86
2022-09-21T04:56:30.501Z,7.90
2022-09-21T04:59:32.360Z,7.93
2022-09-21T05:02:34.279Z,7.93
2022-09-21T05:05:36.431Z,7.96
2022-09-21T05:08:57.042Z,7.96
2022-09-21T05:11:59.143Z,7.98
2022-09-21T05:15:01.327Z,8.01
2022-09-21T05:18:03.149Z,8.02
2022-09-21T05:21:06.556Z,8.04
2022-09-21T05:24:08.505Z,8.06
2022-09-21T05:27:10.358Z,8.08
2022-09-21T05:30:12.935Z,8.12
2022-09-21T05:33:17.204Z,8.18
2022-09-21T05:36:42.430Z,8.26
2022-09-21T05:39:44.890Z,8.40
2022-09-21T05:42:47.013Z,8.49
2022-09-21T05:46:05.552Z,8.56
2022-09-21T05:49:23.080Z,8.62
2022-09-21T05:52:30.573Z,8.68
2022-09-21T05:55:54.358Z,8.75
2022-09-21T05:59:11.501Z,8.82
2022-09-21T06:02:16.464Z,8.87
2022-09-21T06:05:18.774Z,8.92
2022-09-21T06:08:20.655Z,8.96
2022-09-21T06:11:22.456Z,9.01
2022-09-21T06:14:27.000Z,9.05
2022-09-21T06:17:28.815Z,9.12
2022-09-21T06:20:30.707Z,9.16
2022-09-21T06:23:32.806Z,9.23
2022-09-21T06:26:35.301Z,9.28
2022-09-21T06:29:37.259Z,9.34
2022-09-21T06:32:39.058Z,9.38
2022-09-21T06:35:41.118Z,9.41
2022-09-21T06:38:43.357Z,9.44
2022-09-21T06:41:45.304Z,9.51
2022-09-21T06:44:47.088Z,9.57
2022-09-21T06:47:49.024Z,9.64
2022-09-21T06:50:51.200Z,9.70
2022-09-21T06:53:57.187Z,9.77
2022-09-21T06:57:00.197Z,9.85
2022-09-21T07:00:02.679Z,9.86
2022-09-21T07:03:04.498Z,9.87
2022-09-21T07:06:07.402Z,9.87
2022-09-21T07:12:34.683Z,10.01
2022-09-21T07:15:36.588Z,10.07
2022-09-21T07:18:44.188Z,10.10
2022-09-21T07:21:46.371Z,10.14
2022-09-21T07:24:48.168Z,10.17
2022-09-21T07:27:50.009Z,10.17
2022-09-21T07:30:52.062Z,10.19
2022-09-21T07:33:58.313Z,10.24
2022-09-21T07:37:00.072Z,10.29
2022-09-21T07:40:06.097Z,10.36
2022-09-21T07:43:08.031Z,10.42
2022-09-21T07:46:14.866Z,10.48
2022-09-21T07:49:16.754Z,10.56
2022-09-21T07:52:19.557Z,10.61
2022-09-21T07:55:21.462Z,10.66
2022-09-21T07:58:42.042Z,10.72
2022-09-21T08:01:43.770Z,10.75
2022-09-21T08:04:45.699Z,10.73
2022-09-21T08:07:48.586Z,10.71
2022-09-21T08:10:53.170Z,10.74
2022-09-21T08:13:58.054Z,10.76
2022-09-21T08:17:00.063Z,10.76
2022-09-21T08:20:02.826Z,10.80
2022-09-21T08:23:05.143Z,10.85
2022-09-21T08:26:08.094Z,10.87
2022-09-21T08:29:10.671Z,10.86
2022-09-21T08:32:27.560Z,10.89
2022-09-21T08:35:34.798Z,10.93
2022-09-21T08:38:38.690Z,10.97
2022-09-21T08:41:46.310Z,11.04
2022-09-21T08:44:55.605Z,11.08
2022-09-21T08:47:59.512Z,11.11
2022-09-21T08:51:06.243Z,11.11
2022-09-21T08:54:35.854Z,11.16
2022-09-21T08:57:37.651Z,11.23
2022-09-21T09:00:41.029Z,11.30
2022-09-21T09:03:52.592Z,11.33
2022-09-21T09:06:54.662Z,11.39
2022-09-21T09:10:05.816Z,11.42
2022-09-21T09:13:18.363Z,11.39
2022-09-21T09:16:28.154Z,11.35
2022-09-21T09:19:52.054Z,11.33
2022-09-21T09:23:08.159Z,11.34
2022-09-21T09:26:20.690Z,11.47
2022-09-21T09:29:43.913Z,11.67
2022-09-21T09:32:59.162Z,11.96
2022-09-21T09:36:06.491Z,12.12
2022-09-21T09:39:14.456Z,12.09
2022-09-21T09:42:31.971Z,12.06
2022-09-21T09:45:52.039Z,12.02
2022-09-21T09:49:06.092Z,11.90
2022-09-21T09:52:12.076Z,11.83
2022-09-21T09:55:30.520Z,11.80
2022-09-21T09:58:55.237Z,11.79
2022-09-21T10:02:10.769Z,11.79
2022-09-21T10:05:20.649Z,11.86
2022-09-21T10:08:44.168Z,11.98
2022-09-21T10:11:46.982Z,12.07
2022-09-21T10:14:50.177Z,12.27
2022-09-21T10:18:10.782Z,12.44
2022-09-21T10:21:22.933Z,12.52
2022-09-21T10:24:33.698Z,12.36
2022-09-21T10:27:37.479Z,12.30
2022-09-21T10:30:39.277Z,12.37
2022-09-21T10:33:50.797Z,12.36
2022-09-21T10:36:54.742Z,12.35
2022-09-21T10:39:57.406Z,12.39
2022-09-21T10:43:00.650Z,12.45
2022-09-21T10:46:02.702Z,12.45
2022-09-21T10:49:04.518Z,12.36
2022-09-21T10:52:06.430Z,12.34
2022-09-21T10:55:18.956Z,12.44
2022-09-21T10:58:21.019Z,12.70
2022-09-21T11:01:23.757Z,13.01
2022-09-21T11:04:37.060Z,13.09
2022-09-21T11:07:59.717Z,13.19
2022-09-21T11:11:21.686Z,13.20
2022-09-21T11:14:51.520Z,13.24
2022-09-21T11:17:59.379Z,13.22
2022-09-21T11:21:07.278Z,13.41
2022-09-21T11:24:40.370Z,13.54
2022-09-21T11:27:45.323Z,13.44
2022-09-21T11:31:11.985Z,13.46
2022-09-21T11:34:20.981Z,13.31
2022-09-21T11:37:57.556Z,13.28
2022-09-21T11:41:06.282Z,13.38
2022-09-21T11:44:41.083Z,13.41
2022-09-21T11:48:09.215Z,13.49
2022-09-21T11:51:40.470Z,13.64
2022-09-21T11:54:55.226Z,14.39
2022-09-21T11:58:06.298Z,14.89
2022-09-21T12:01:28.215Z,15.24
2022-09-21T12:04:55.740Z,14.94
2022-09-21T12:08:03.518Z,14.71
2022-09-21T12:11:44.058Z,14.52
2022-09-21T12:15:08.321Z,14.45
2022-09-21T12:18:21.522Z,14.32
2022-09-21T12:21:27.933Z,14.36
2022-09-21T12:24:35.749Z,14.53
2022-09-21T12:27:41.235Z,14.72
2022-09-21T12:30:45.654Z,14.80
2022-09-21T12:34:15.534Z,14.80
2022-09-21T12:37:41.248Z,14.88
2022-09-21T12:41:15.507Z,14.88
2022-09-21T12:44:23.110Z,14.61
2022-09-21T12:47:28.947Z,14.47
2022-09-21T12:50:40.121Z,14.35
2022-09-21T12:53:52.276Z,14.21
2022-09-21T12:57:23.574Z,14.16
2022-09-21T13:00:30.632Z,14.17
2022-09-21T13:04:10.910Z,14.35
2022-09-21T13:07:34.067Z,14.59
2022-09-21T13:10:49.246Z,14.65
2022-09-21T13:14:03.194Z,14.57
2022-09-21T13:17:06.134Z,14.39
2022-09-21T13:20:21.581Z,14.22
2022-09-21T13:23:41.199Z,14.10
2022-09-21T13:26:51.156Z,13.95
2022-09-21T13:30:29.639Z,13.81
2022-09-21T13:33:37.604Z,13.52
2022-09-21T13:36:39.471Z,13.30
2022-09-21T13:39:44.610Z,13.08
2022-09-21T13:42:48.031Z,12.88
2022-09-21T13:45:53.794Z,12.79
2022-09-21T13:48:55.720Z,12.83
2022-09-21T13:52:07.781Z,12.89
2022-09-21T13:55:28.677Z,13.03
2022-09-21T13:58:36.642Z,13.07
2022-09-21T14:01:47.970Z,13.02
2022-09-21T14:04:51.063Z,12.77
2022-09-21T14:08:15.990Z,12.49
2022-09-21T14:11:22.578Z,12.34
2022-09-21T14:14:27.365Z,12.27
2022-09-21T14:17:37.801Z,12.26
2022-09-21T14:20:39.916Z,12.32
2022-09-21T14:23:42.185Z,12.38
2022-09-21T14:26:43.946Z,12.61
2022-09-21T14:29:55.565Z,12.80
2022-09-21T14:33:00.127Z,12.87
2022-09-21T14:36:07.499Z,12.99
2022-09-21T14:39:43.401Z,12.91
2022-09-21T14:42:46.239Z,12.64
2022-09-21T14:46:20.223Z,12.45
2022-09-21T14:49:45.817Z,12.28
2022-09-21T14:52:57.068Z,12.16
2022-09-21T14:56:04.610Z,12.10
2022-09-21T14:59:25.329Z,12.09
2022-09-21T15:02:31.518Z,12.15
2022-09-21T15:05:33.307Z,12.24
2022-09-21T15:09:12.542Z,12.52
2022-09-21T15:12:20.823Z,13.36
2022-09-21T15:15:41.669Z,13.41
2022-09-21T15:18:46.201Z,13.37
2022-09-21T15:21:52.681Z,13.76
2022-09-21T15:25:02.693Z,14.52
2022-09-21T15:28:04.570Z,15.05
2022-09-21T15:31:07.842Z,14.77
2022-09-21T15:34:11.072Z,14.41
2022-09-21T15:37:17.409Z,14.21
2022-09-21T15:40:20.831Z,14.02
2022-09-21T15:43:22.685Z,14.23
2022-09-21T15:46:24.657Z,14.46
2022-09-21T15:49:28.301Z,14.42
2022-09-21T15:52:34.267Z,14.06
2022-09-21T15:55:36.077Z,13.74
2022-09-21T15:58:40.537Z,13.47
2022-09-21T16:01:45.002Z,13.22
2022-09-21T16:04:50.126Z,13.02
2022-09-21T16:08:10.178Z,12.82
2022-09-21T16:11:25.229Z,12.62
2022-09-21T16:14:45.662Z,12.44
2022-09-21T16:18:11.761Z,12.28
2022-09-21T16:21:27.890Z,12.12
2022-09-21T16:24:30.452Z,11.98
2022-09-21T16:27:35.624Z,11.78
2022-09-21T16:30:46.290Z,11.55
2022-09-21T16:33:48.966Z,11.33
2022-09-21T16:36:53.025Z,11.13
2022-09-21T16:39:57.045Z,10.92
2022-09-21T16:42:58.963Z,10.79
2022-09-21T16:46:02.247Z,10.69
2022-09-21T16:49:04.187Z,10.62
2022-09-21T16:52:07.597Z,10.57
2022-09-21T16:55:10.388Z,10.52
2022-09-21T16:58:12.306Z,10.48
2022-09-21T17:01:22.316Z,10.43
2022-09-21T17:04:29.653Z,10.39
2022-09-21T17:07:31.406Z,10.35
2022-09-21T17:10:37.902Z,10.31
2022-09-21T17:13:39.559Z,10.24
2022-09-21T17:16:44.015Z,10.16
2022-09-21T17:19:48.554Z,10.07
2022-09-21T17:22:50.220Z,9.98
2022-09-21T17:25:52.601Z,9.90
2022-09-21T17:28:54.180Z,9.83
2022-09-21T17:31:57.987Z,9.77
2022-09-21T17:35:15.816Z,9.71
2022-09-21T17:38:18.259Z,9.63
2022-09-21T17:41:26.087Z,9.56
2022-09-21T17:44:46.005Z,9.50
2022-09-21T17:47:50.296Z,9.44
2022-09-21T17:50:52.216Z,9.38
2022-09-21T17:53:54.138Z,9.34
2022-09-21T17:57:33.154Z,9.32
2022-09-21T18:01:07.585Z,9.30
2022-09-21T18:04:13.164Z,9.30
2022-09-21T18:07:17.690Z,9.28
2022-09-21T18:10:21.287Z,9.25
2022-09-21T18:13:59.569Z,9.24
2022-09-21T18:17:26.070Z,9.23
2022-09-21T18:20:54.125Z,9.21
2022-09-21T18:24:33.298Z,9.19
2022-09-21T18:27:35.194Z,9.19
2022-09-21T18:30:41.507Z,9.19
2022-09-21T18:33:51.035Z,9.18
2022-09-21T18:36:56.118Z,9.17
2022-09-21T18:40:03.343Z,9.17
2022-09-21T18:43:23.788Z,9.18
2022-09-21T18:46:33.948Z,9.19
2022-09-21T18:49:59.088Z,9.20
2022-09-21T18:53:29.416Z,9.21
2022-09-21T18:56:34.983Z,9.22
2022-09-21T18:59:36.842Z,9.24
2022-09-21T19:02:48.724Z,9.26
2022-09-21T19:06:15.829Z,9.28
2022-09-21T19:09:23.393Z,9.29
2022-09-21T19:12:49.829Z,9.28
2022-09-21T19:16:20.527Z,9.29
2022-09-21T19:19:37.690Z,9.27
2022-09-21T19:23:06.171Z,9.26
2022-09-21T19:26:17.575Z,9.22
2022-09-21T19:29:35.490Z,9.22
2022-09-21T19:32:53.906Z,9.20
2022-09-21T19:35:57.161Z,9.16
2022-09-21T19:38:59.085Z,9.15
2022-09-21T19:42:07.302Z,9.16
2022-09-21T19:45:22.748Z,9.17
2022-09-21T19:48:28.112Z,9.18
2022-09-21T19:51:41.907Z,9.19
2022-09-21T19:55:02.769Z,9.19
2022-09-21T19:58:23.696Z,9.19
2022-09-21T20:01:25.669Z,9.17
2022-09-21T20:04:42.389Z,9.19
2022-09-21T20:08:09.503Z,9.19
2022-09-21T20:11:34.859Z,9.17
2022-09-21T20:14:43.569Z,9.18
2022-09-21T20:17:54.606Z,9.19
2022-09-21T20:20:57.528Z,9.18
2022-09-21T20:24:02.090Z,9.19
2022-09-21T20:27:14.649Z,9.20
2022-09-21T20:30:21.189Z,9.20
2022-09-21T20:33:24.262Z,9.18
2022-09-21T20:36:28.862Z,9.19
2022-09-21T20:39:30.540Z,9.18
2022-09-21T20:42:34.445Z,9.18
2022-09-21T20:45:36.323Z,9.17
2022-09-21T20:48:38.439Z,9.16
2022-09-21T20:51:40.081Z,9.15
2022-09-21T20:54:45.508Z,9.13
2022-09-21T20:57:50.690Z,9.09
2022-09-21T21:00:57.876Z,9.07
2022-09-21T21:04:03.307Z,9.07
2022-09-21T21:07:06.101Z,9.15
2022-09-21T21:10:08.450Z,9.18
2022-09-21T21:13:10.191Z,9.21
2022-09-21T21:16:12.613Z,9.22
2022-09-21T21:19:15.006Z,9.22
2022-09-21T21:22:17.214Z,9.21
2022-09-21T21:25:19.118Z,9.21
2022-09-21T21:28:20.868Z,9.21
2022-09-21T21:31:23.649Z,9.21
2022-09-21T21:34:25.671Z,9.20
2022-09-21T21:37:27.724Z,9.19
2022-09-21T21:40:29.448Z,9.18
2022-09-21T21:43:36.038Z,9.17
2022-09-21T21:46:37.737Z,9.15
2022-09-21T21:49:39.514Z,9.14
2022-09-21T21:52:41.442Z,9.13
2022-09-21T21:55:43.171Z,9.11
2022-09-21T21:58:44.755Z,9.09
2022-09-21T22:01:46.852Z,9.08
2022-09-21T22:04:48.659Z,9.07
2022-09-21T22:07:50.419Z,9.07
2022-09-21T22:10:52.139Z,9.06
2022-09-21T22:13:55.011Z,9.06
2022-09-21T22:16:59.020Z,9.04
2022-09-21T22:20:00.750Z,9.03
2022-09-21T22:23:02.629Z,9.02
2022-09-21T22:26:09.429Z,9.01
2022-09-21T22:29:13.516Z,9.01
2022-09-21T22:32:15.260Z,9.00
2022-09-21T22:35:17.187Z,8.99
2022-09-21T22:38:19.102Z,8.98
2022-09-21T22:41:25.672Z,8.96
2022-09-21T22:44:27.385Z,8.95
2022-09-21T22:47:29.148Z,8.94
2022-09-21T22:50:30.759Z,8.94
2022-09-21T22:53:32.678Z,8.91
2022-09-21T22:56:34.418Z,8.87
2022-09-21T22:59:36.191Z,8.82
2022-09-21T23:02:37.888Z,8.77
2022-09-21T23:06:00.097Z,8.71
2022-09-21T23:09:19.787Z,8.62
2022-09-21T23:12:34.722Z,8.54
2022-09-21T23:15:36.462Z,8.42
2022-09-21T23:18:38.814Z,8.33
2022-09-21T23:21:41.806Z,8.28
2022-09-21T23:24:43.533Z,8.23
2022-09-21T23:27:45.173Z,8.15
2022-09-21T23:30:46.911Z,8.10
2022-09-21T23:33:51.032Z,8.09
2022-09-21T23:36:52.712Z,8.11
2022-09-21T23:39:54.419Z,8.13
2022-09-21T23:42:56.134Z,8.16
2022-09-21T23:45:58.576Z,8.18
2022-09-21T23:49:00.837Z,8.20
2022-09-21T23:52:02.985Z,8.22
2022-09-21T23:55:05.103Z,8.23
2022-09-21T23:58:06.843Z,8.24
